Time;durP1;ratioP1;P1;durP2;ratioP2;P2;SDS_P1;SDS_P2;PMS_P1;PMS_P2;Temp;Humidity;BMP_temperature;BMP_pressure;BME280_temperature;BME280_humidity;BME280_pressure;Samples;Min_cycle;Max_cycle;Signal;HPM_P1;HPM_P2
2023/08/19 00:00:59;;;;;;;46.10;37.22;;;;;;;22.33;100.00;101212.44;5043906;28;20029;-73
2023/08/19 00:03:25;;;;;;;47.08;32.17;;;;;;;22.38;100.00;101217.38;5033307;28;20038;-74
2023/08/19 00:05:51;;;;;;;44.35;36.42;;;;;;;22.41;100.00;101217.91;5041291;28;21244;-74
2023/08/19 00:08:17;;;;;;;42.67;31.98;;;;;;;22.47;100.00;101209.09;5031739;28;20069;-74
2023/08/19 00:10:43;;;;;;;44.50;35.42;;;;;;;22.41;100.00;101208.91;5054580;28;20116;-74
2023/08/19 00:13:09;;;;;;;39.60;32.10;;;;;;;22.46;100.00;101210.09;5044468;28;20995;-74
2023/08/19 00:15:34;;;;;;;43.00;33.50;;;;;;;22.48;100.00;101205.34;5036167;28;20318;-74
2023/08/19 00:18:01;;;;;;;43.03;34.38;;;;;;;22.48;100.00;101207.22;5035545;28;20061;-74
2023/08/19 00:20:30;;;;;;;40.45;31.40;;;;;;;22.51;100.00;101197.91;5038840;28;20044;-72
2023/08/19 00:22:56;;;;;;;37.15;29.77;;;;;;;22.49;100.00;101198.03;5021614;28;20053;-73
2023/08/19 00:25:22;;;;;;;39.85;31.73;;;;;;;22.46;100.00;101199.25;5039534;28;20037;-73
2023/08/19 00:27:48;;;;;;;41.55;31.73;;;;;;;22.45;100.00;101191.25;5050305;28;20033;-73
2023/08/19 00:30:14;;;;;;;39.70;31.33;;;;;;;22.41;100.00;101198.03;5044821;28;20030;-73
2023/08/19 00:32:40;;;;;;;40.40;30.40;;;;;;;22.36;100.00;101195.81;5042890;28;20060;-74
2023/08/19 00:35:06;;;;;;;46.47;36.72;;;;;;;22.35;100.00;101196.84;5038804;28;20037;-73
2023/08/19 00:37:32;;;;;;;39.08;30.70;;;;;;;22.32;100.00;101199.03;5036784;28;20038;-75
2023/08/19 00:39:58;;;;;;;42.20;32.13;;;;;;;22.27;100.00;101201.38;5036679;28;20044;-75
2023/08/19 00:42:23;;;;;;;43.95;34.30;;;;;;;22.27;100.00;101202.22;5035833;28;20100;-75
2023/08/19 00:44:50;;;;;;;38.95;30.98;;;;;;;22.20;100.00;101193.06;5067776;28;20152;-74
2023/08/19 00:47:17;;;;;;;38.58;30.67;;;;;;;22.16;100.00;101197.09;5030656;28;20527;-74
2023/08/19 00:49:42;;;;;;;42.20;30.85;;;;;;;22.11;100.00;101199.47;5030251;28;20033;-74
2023/08/19 00:52:09;;;;;;;43.88;34.08;;;;;;;22.10;100.00;101198.59;5016135;28;20467;-73
2023/08/19 00:54:34;;;;;;;40.58;26.92;;;;;;;22.08;100.00;101197.03;5039740;28;20045;-74
2023/08/19 00:57:00;;;;;;;28.80;24.98;;;;;;;22.02;100.00;101193.09;5032958;28;20870;-74
2023/08/19 00:59:26;;;;;;;30.33;24.38;;;;;;;22.00;100.00;101187.00;5037337;28;20041;-74
2023/08/19 01:01:52;;;;;;;32.45;25.23;;;;;;;21.95;100.00;101186.63;5034063;28;20619;-73
2023/08/19 01:04:18;;;;;;;34.55;24.17;;;;;;;21.97;100.00;101185.44;5027184;28;20689;-74
2023/08/19 01:07:25;;;;;;;21.30;16.50;;;;;;;21.89;100.00;101176.44;5060880;28;20040;-74
2023/08/19 01:09:58;;;;;;;20.20;17.75;;;;;;;21.88;100.00;101177.41;4999167;28;20085;-73
2023/08/19 01:12:52;;;;;;;18.20;16.27;;;;;;;21.85;100.00;101177.75;5002057;28;20492;-74
2023/08/19 01:15:24;;;;;;;23.33;18.98;;;;;;;21.82;100.00;101186.22;5006181;28;20157;-74
2023/08/19 01:17:52;;;;;;;39.78;29.85;;;;;;;21.84;100.00;101182.34;5019478;28;20046;-74
2023/08/19 01:20:19;;;;;;;29.00;22.13;;;;;;;21.82;100.00;101181.63;5001454;28;20904;-73
2023/08/19 01:22:56;;;;;;;36.15;28.33;;;;;;;21.78;100.00;101176.69;4996257;28;20053;-74
2023/08/19 01:25:24;;;;;;;30.63;24.75;;;;;;;21.73;100.00;101171.75;5000685;28;20054;-73
2023/08/19 01:27:49;;;;;;;34.85;26.70;;;;;;;21.80;100.00;101178.25;4997197;28;20157;-74
2023/08/19 01:30:15;;;;;;;35.70;28.13;;;;;;;21.81;100.00;101176.38;4999366;28;20049;-74
2023/08/19 01:32:43;;;;;;;33.65;26.23;;;;;;;21.85;100.00;101183.19;5001963;28;20124;-74
2023/08/19 01:35:10;;;;;;;34.78;25.35;;;;;;;21.83;100.00;101175.19;5001645;28;21088;-73
2023/08/19 01:37:44;;;;;;;31.33;24.40;;;;;;;21.84;100.00;101171.50;5002737;28;20515;-74
2023/08/19 01:40:13;;;;;;;33.33;27.35;;;;;;;21.91;100.00;101177.09;5018934;28;20081;-74
2023/08/19 01:42:39;;;;;;;35.60;29.05;;;;;;;21.96;100.00;101167.44;4993329;28;20089;-75
2023/08/19 01:45:07;;;;;;;38.15;28.58;;;;;;;22.00;100.00;101169.84;5008246;28;20034;-74
2023/08/19 01:47:32;;;;;;;35.22;29.35;;;;;;;22.02;100.00;101176.81;5061944;28;20029;-73
2023/08/19 01:49:58;;;;;;;42.10;29.48;;;;;;;22.01;100.00;101172.41;5031160;28;20033;-74
2023/08/19 01:52:23;;;;;;;39.15;30.15;;;;;;;22.02;100.00;101174.09;5061821;28;20037;-74
2023/08/19 01:54:49;;;;;;;42.47;29.55;;;;;;;22.04;100.00;101176.63;5029179;28;20033;-74
2023/08/19 01:57:14;;;;;;;32.90;27.70;;;;;;;22.06;100.00;101170.03;5029329;28;20037;-74
2023/08/19 01:59:40;;;;;;;50.00;34.28;;;;;;;22.11;100.00;101164.16;5026653;28;20042;-73
2023/08/19 02:02:05;;;;;;;39.92;31.80;;;;;;;22.08;100.00;101159.00;5030274;28;20107;-74
2023/08/19 02:04:31;;;;;;;38.65;31.60;;;;;;;21.99;100.00;101163.56;5062350;28;20030;-74
2023/08/19 02:06:57;;;;;;;44.20;34.78;;;;;;;21.97;100.00;101161.00;5029344;28;20038;-73
2023/08/19 02:09:23;;;;;;;43.13;33.45;;;;;;;21.98;100.00;101154.53;5037150;28;20075;-73
2023/08/19 02:11:49;;;;;;;37.35;31.40;;;;;;;21.97;100.00;101152.84;5030597;28;20060;-74
2023/08/19 02:14:15;;;;;;;36.58;30.88;;;;;;;21.99;100.00;101150.00;5025425;28;20569;-73
2023/08/19 02:16:40;;;;;;;38.90;33.03;;;;;;;21.92;100.00;101143.50;5030678;28;20584;-74
2023/08/19 02:19:08;;;;;;;43.22;31.13;;;;;;;21.86;100.00;101158.59;5026354;28;20488;-74
2023/08/19 02:21:34;;;;;;;40.03;29.08;;;;;;;21.86;100.00;101138.72;5030484;28;20088;-73
2023/08/19 02:23:59;;;;;;;44.72;33.65;;;;;;;21.83;100.00;101139.88;5063052;28;20076;-73
2023/08/19 02:26:25;;;;;;;39.13;30.17;;;;;;;21.81;100.00;101141.09;5030032;28;20076;-74
2023/08/19 02:28:50;;;;;;;40.78;30.63;;;;;;;21.76;100.00;101136.13;5029040;28;20811;-73
2023/08/19 02:31:16;;;;;;;37.13;28.60;;;;;;;21.78;100.00;101130.53;5061303;28;20045;-75
2023/08/19 02:33:41;;;;;;;39.63;30.80;;;;;;;21.72;100.00;101137.47;5030380;28;20050;-74
2023/08/19 02:36:07;;;;;;;31.05;26.63;;;;;;;21.80;100.00;101134.81;5061969;28;20048;-74
2023/08/19 02:38:33;;;;;;;37.25;30.08;;;;;;;21.80;100.00;101137.53;5024660;28;20229;-73
2023/08/19 02:40:59;;;;;;;33.38;27.65;;;;;;;21.83;100.00;101133.63;5026362;28;20124;-74
2023/08/19 02:43:25;;;;;;;34.22;25.77;;;;;;;21.84;100.00;101136.19;5026097;28;20080;-74
2023/08/19 02:45:50;;;;;;;46.95;30.75;;;;;;;21.81;100.00;101124.78;5027329;28;20037;-74
2023/08/19 02:48:16;;;;;;;41.05;32.20;;;;;;;21.66;100.00;101122.69;5029324;28;20057;-74
2023/08/19 02:50:42;;;;;;;36.20;29.05;;;;;;;21.68;100.00;101134.22;5023108;28;20041;-73
2023/08/19 02:53:08;;;;;;;37.70;30.05;;;;;;;21.71;100.00;101127.63;5063466;28;20099;-74
2023/08/19 02:55:33;;;;;;;40.10;29.67;;;;;;;21.80;100.00;101129.38;5029853;28;20138;-72
2023/08/19 02:58:02;;;;;;;37.95;27.67;;;;;;;21.86;100.00;101130.59;5029830;28;20040;-73
2023/08/19 03:00:27;;;;;;;36.45;29.63;;;;;;;21.84;100.00;101135.31;5046362;28;20129;-74
2023/08/19 03:02:53;;;;;;;40.03;29.15;;;;;;;21.90;100.00;101135.53;5032337;28;20041;-74
2023/08/19 03:05:19;;;;;;;41.72;29.17;;;;;;;21.90;100.00;101138.25;5027482;28;20048;-74
2023/08/19 03:07:45;;;;;;;42.38;29.88;;;;;;;21.98;100.00;101143.69;5065073;28;20033;-73
2023/08/19 03:10:10;;;;;;;34.10;27.00;;;;;;;22.08;100.00;101132.69;5033786;28;20049;-74
2023/08/19 03:12:36;;;;;;;34.70;26.30;;;;;;;22.08;100.00;101135.41;5025192;28;20113;-73
2023/08/19 03:15:01;;;;;;;32.20;25.95;;;;;;;22.10;100.00;101127.97;5058331;28;20036;-74
2023/08/19 03:17:27;;;;;;;31.75;25.33;;;;;;;22.13;100.00;101126.78;5031278;28;20379;-73
2023/08/19 03:19:54;;;;;;;28.65;22.40;;;;;;;22.06;100.00;101132.00;5029178;28;20041;-74
2023/08/19 03:22:19;;;;;;;30.80;23.25;;;;;;;22.12;100.00;101125.09;5026852;28;21031;-74
2023/08/19 03:24:45;;;;;;;25.77;21.52;;;;;;;22.19;100.00;101121.56;5029360;28;20038;-74
2023/08/19 03:27:10;;;;;;;28.45;20.80;;;;;;;22.20;100.00;101115.09;5030012;28;20030;-74
2023/08/19 03:29:37;;;;;;;30.88;21.85;;;;;;;22.25;100.00;101106.47;5029129;28;20186;-74
2023/08/19 03:32:03;;;;;;;27.45;20.98;;;;;;;22.24;100.00;101104.78;5031350;28;20123;-73
2023/08/19 03:34:28;;;;;;;29.83;20.25;;;;;;;22.25;100.00;101098.31;5045461;28;20042;-73
2023/08/19 03:36:54;;;;;;;27.90;18.20;;;;;;;22.32;100.00;101090.34;5030080;28;20969;-74
2023/08/19 03:39:20;;;;;;;25.52;19.63;;;;;;;22.47;100.00;101094.09;5026211;28;20045;-73
2023/08/19 03:41:46;;;;;;;24.23;18.52;;;;;;;22.49;100.00;101090.19;5030029;28;20772;-73
2023/08/19 03:44:11;;;;;;;27.35;17.90;;;;;;;22.41;100.00;101095.63;5028791;28;20574;-74
2023/08/19 03:46:37;;;;;;;21.50;17.80;;;;;;;22.55;100.00;101095.97;5029936;28;20034;-73
2023/08/19 03:49:02;;;;;;;20.48;17.00;;;;;;;22.55;100.00;101091.38;5029196;28;20048;-74
2023/08/19 03:51:30;;;;;;;25.23;16.83;;;;;;;22.44;100.00;101089.84;5061612;28;20029;-73
2023/08/19 03:53:56;;;;;;;20.92;15.18;;;;;;;22.46;100.00;101085.09;5030020;28;20038;-74
2023/08/19 03:56:21;;;;;;;17.55;14.02;;;;;;;22.60;100.00;101094.44;5027353;28;20045;-73
2023/08/19 03:58:47;;;;;;;20.17;14.50;;;;;;;22.63;100.00;101106.84;5037557;28;20821;-73
2023/08/19 04:01:14;;;;;;;25.67;16.25;;;;;;;22.67;100.00;101103.59;5013453;28;20120;-73
2023/08/19 04:03:40;;;;;;;20.05;14.43;;;;;;;22.65;100.00;101105.66;5033431;28;20068;-74
2023/08/19 04:06:06;;;;;;;23.30;15.07;;;;;;;22.70;100.00;101102.44;5027666;28;20108;-74
2023/08/19 04:08:31;;;;;;;21.88;14.73;;;;;;;22.73;100.00;101104.78;5031824;28;20045;-74
2023/08/19 04:11:05;;;;;;;19.70;15.27;;;;;;;22.65;100.00;101110.25;5033686;28;20108;-74
2023/08/19 04:13:30;;;;;;;26.90;15.82;;;;;;;22.68;100.00;101101.75;5028871;28;20129;-74
2023/08/19 04:16:06;;;;;;;21.65;14.75;;;;;;;22.68;100.00;101104.44;5029359;28;20033;-73
2023/08/19 04:18:33;;;;;;;19.60;14.05;;;;;;;22.74;100.00;101101.03;5048154;28;20134;-73
2023/08/19 04:21:07;;;;;;;20.73;15.55;;;;;;;22.68;100.00;101093.56;5036313;28;20084;-73
2023/08/19 04:23:33;;;;;;;19.48;14.48;;;;;;;22.74;100.00;101090.16;5030203;28;20042;-74
2023/08/19 04:25:59;;;;;;;18.92;13.70;;;;;;;22.75;100.00;101089.19;5034955;28;20162;-73
2023/08/19 04:28:26;;;;;;;19.88;14.18;;;;;;;22.73;100.00;101094.75;5038721;28;20029;-74
2023/08/19 04:30:53;;;;;;;14.23;12.35;;;;;;;22.77;100.00;101098.00;5030832;28;20044;-74
2023/08/19 04:33:18;;;;;;;23.25;13.82;;;;;;;22.71;100.00;101085.94;5064870;28;20049;-74
2023/08/19 04:35:46;;;;;;;20.50;14.82;;;;;;;22.75;100.00;101078.31;5031757;28;20033;-73
2023/08/19 04:38:11;;;;;;;20.17;13.15;;;;;;;22.73;100.00;101080.31;5029192;28;20919;-73
2023/08/19 04:40:37;;;;;;;19.65;13.32;;;;;;;22.72;100.00;101073.19;5029555;28;20029;-73
2023/08/19 04:43:03;;;;;;;22.23;13.52;;;;;;;22.72;100.00;101071.31;5039923;28;20040;-72
2023/08/19 04:45:28;;;;;;;19.38;13.20;;;;;;;22.85;100.00;101064.53;5063739;28;20030;-73
2023/08/19 04:47:54;;;;;;;17.67;12.38;;;;;;;22.97;100.00;101074.06;5048328;28;21048;-74
2023/08/19 04:50:21;;;;;;;19.30;11.40;;;;;;;23.03;100.00;101072.50;5030019;28;20808;-74
2023/08/19 04:52:48;;;;;;;18.42;11.82;;;;;;;22.98;100.00;101071.16;5036394;28;20559;-74
2023/08/19 04:55:14;;;;;;;23.88;11.98;;;;;;;23.05;100.00;101074.06;5024990;28;20042;-73
2023/08/19 04:57:42;;;;;;;16.88;11.90;;;;;;;23.07;100.00;101071.16;5027640;28;20037;-74
2023/08/19 05:00:12;;;;;;;13.45;11.23;;;;;;;23.05;100.00;101076.78;5045007;28;20041;-73
2023/08/19 05:02:38;;;;;;;16.80;10.57;;;;;;;23.04;100.00;101075.03;5063209;28;20053;-74
2023/08/19 05:05:05;;;;;;;18.55;11.77;;;;;;;23.03;100.00;101072.50;5029481;28;21069;-73
2023/08/19 05:07:30;;;;;;;21.95;11.80;;;;;;;23.06;100.00;101061.28;5062783;28;20628;-74
2023/08/19 05:09:56;;;;;;;16.70;10.60;;;;;;;23.06;100.00;101073.03;5030877;28;20041;-74
2023/08/19 05:12:25;;;;;;;15.18;10.80;;;;;;;23.10;100.00;101070.81;5045308;28;20413;-74
2023/08/19 05:14:52;;;;;;;17.35;11.57;;;;;;;23.13;100.00;101065.00;5045083;28;20041;-74
2023/08/19 05:17:20;;;;;;;19.15;10.65;;;;;;;23.02;100.00;101074.38;5032328;28;20135;-74
2023/08/19 05:19:45;;;;;;;15.30;10.60;;;;;;;23.16;100.00;101086.44;5033531;28;20029;-74
2023/08/19 05:22:11;;;;;;;13.38;9.30;;;;;;;23.24;100.00;101086.41;5032202;28;21063;-73
2023/08/19 05:24:37;;;;;;;17.90;10.95;;;;;;;23.25;100.00;101091.69;5031041;28;20495;-74
2023/08/19 05:27:05;;;;;;;14.82;11.10;;;;;;;23.19;100.00;101107.84;5048111;28;20033;-74
2023/08/19 05:29:37;;;;;;;15.85;11.32;;;;;;;23.25;100.00;101096.28;5026760;28;20032;-73
2023/08/19 05:32:04;;;;;;;17.38;11.00;;;;;;;23.24;100.00;101100.00;5013267;28;20045;-74
2023/08/19 05:34:29;;;;;;;15.25;10.00;;;;;;;23.40;100.00;101107.31;5034974;28;20029;-73
2023/08/19 05:36:55;;;;;;;19.33;11.30;;;;;;;23.35;100.00;101112.41;5058913;28;20112;-74
2023/08/19 05:39:21;;;;;;;14.27;10.02;;;;;;;23.43;100.00;101102.34;5046170;28;20828;-74
2023/08/19 05:41:47;;;;;;;15.95;10.63;;;;;;;23.61;100.00;101110.28;5034657;28;20705;-74
2023/08/19 05:44:12;;;;;;;12.07;9.70;;;;;;;23.69;100.00;101110.28;5042251;28;20057;-73
2023/08/19 05:46:38;;;;;;;16.00;9.95;;;;;;;23.80;100.00;101110.91;5029547;28;20377;-74
2023/08/19 05:49:03;;;;;;;19.95;10.68;;;;;;;23.90;100.00;101114.31;5025707;28;20125;-74
2023/08/19 05:51:29;;;;;;;15.40;9.70;;;;;;;23.97;100.00;101121.56;5025963;28;20038;-73
2023/08/19 05:54:01;;;;;;;18.55;11.90;;;;;;;23.92;100.00;101115.81;5030823;28;20832;-74
2023/08/19 05:56:26;;;;;;;16.80;11.38;;;;;;;23.89;100.00;101121.59;5038044;28;20219;-73
2023/08/19 05:58:52;;;;;;;15.15;11.13;;;;;;;23.91;100.00;101116.00;5038064;28;20033;-75
2023/08/19 06:01:18;;;;;;;17.10;11.30;;;;;;;23.95;100.00;101118.19;5046335;28;20024;-74
2023/08/19 06:03:43;;;;;;;13.80;9.73;;;;;;;23.87;100.00;101117.38;5064663;28;26645;-74
2023/08/19 06:06:09;;;;;;;14.60;10.90;;;;;;;23.76;100.00;101114.00;5043654;28;20038;-74
2023/08/19 06:08:35;;;;;;;17.88;10.93;;;;;;;23.79;100.00;101118.22;5036751;28;20053;-74
2023/08/19 06:11:06;;;;;;;19.58;10.45;;;;;;;23.75;100.00;101119.63;5037731;28;20065;-73
2023/08/19 06:13:36;;;;;;;15.45;9.95;;;;;;;23.76;100.00;101116.72;5045642;28;20036;-74
2023/08/19 06:16:03;;;;;;;16.10;10.52;;;;;;;23.78;100.00;101114.66;5053155;28;20095;-75
2023/08/19 06:18:29;;;;;;;15.40;10.40;;;;;;;24.04;100.00;101118.97;5042583;28;20111;-73
2023/08/19 06:20:55;;;;;;;15.73;9.68;;;;;;;24.16;100.00;101125.72;5043319;28;20033;-74
2023/08/19 06:23:21;;;;;;;13.35;9.52;;;;;;;24.35;100.00;101118.09;5045456;28;20396;-73
2023/08/19 06:25:48;;;;;;;17.08;9.50;;;;;;;24.17;100.00;101102.03;5050424;28;20033;-73
2023/08/19 06:28:15;;;;;;;17.20;9.90;;;;;;;24.18;100.00;101103.75;5037537;28;20029;-73
2023/08/19 06:30:41;;;;;;;16.45;9.15;;;;;;;24.17;100.00;101110.22;5031044;28;20064;-73
2023/08/19 06:33:08;;;;;;;17.13;10.20;;;;;;;24.13;100.00;101104.28;5030665;28;20269;-73
2023/08/19 06:35:34;;;;;;;14.77;8.68;;;;;;;24.28;100.00;101104.34;5062614;28;20037;-73
2023/08/19 06:38:05;;;;;;;15.43;8.95;;;;;;;24.46;100.00;101110.41;5063873;28;20125;-72
2023/08/19 06:40:34;;;;;;;16.52;8.40;;;;;;;24.69;100.00;101117.72;5036246;28;20044;-74
2023/08/19 06:43:00;;;;;;;17.70;9.68;;;;;;;24.73;100.00;101117.19;5058941;28;20164;-73
2023/08/19 06:45:27;;;;;;;15.70;8.95;;;;;;;24.68;100.00;101125.06;5035819;28;20065;-75
2023/08/19 06:47:57;;;;;;;19.70;9.98;;;;;;;24.44;100.00;101131.53;5029743;28;20049;-75
2023/08/19 06:50:23;;;;;;;10.48;9.32;;;;;;;24.44;100.00;101122.50;5033784;28;20042;-73
2023/08/19 06:52:49;;;;;;;15.88;9.88;;;;;;;24.46;100.00;101120.47;5029803;28;20908;-73
2023/08/19 06:55:15;;;;;;;13.30;9.70;;;;;;;24.34;100.00;101109.06;5029640;28;20840;-74
2023/08/19 06:57:50;;;;;;;17.30;9.52;;;;;;;24.37;100.00;101116.09;5032261;28;20044;-73
2023/08/19 07:00:16;;;;;;;13.77;8.80;;;;;;;24.62;100.00;101119.50;5033966;28;20108;-73
2023/08/19 07:02:42;;;;;;;14.57;8.85;;;;;;;24.79;100.00;101118.31;5032699;28;20161;-73
2023/08/19 07:05:16;;;;;;;14.27;8.80;;;;;;;24.82;100.00;101109.78;5034011;28;20366;-73
2023/08/19 07:07:49;;;;;;;11.70;8.07;;;;;;;24.95;100.00;101110.00;5029688;28;20995;-73
2023/08/19 07:10:17;;;;;;;14.00;8.02;;;;;;;24.94;100.00;101108.28;5023244;28;20056;-74
2023/08/19 07:12:43;;;;;;;15.10;8.50;;;;;;;25.04;100.00;101108.03;5036423;28;20041;-73
2023/08/19 07:15:12;;;;;;;11.75;7.72;;;;;;;25.02;100.00;101108.22;5027958;28;20029;-74
2023/08/19 07:17:44;;;;;;;14.73;8.73;;;;;;;25.34;100.00;101116.28;5026576;28;20140;-74
2023/08/19 07:20:21;;;;;;;18.05;9.57;;;;;;;25.60;100.00;101116.66;5056401;28;20124;-73
2023/08/19 07:22:48;;;;;;;13.88;8.50;;;;;;;25.73;100.00;101121.47;5024682;28;20041;-73
2023/08/19 07:25:15;;;;;;;13.00;8.18;;;;;;;25.60;100.00;101124.00;5031626;28;20064;-73
2023/08/19 07:27:44;;;;;;;17.92;7.90;;;;;;;25.48;100.00;101120.91;5032706;28;20480;-74
2023/08/19 07:30:11;;;;;;;13.45;8.32;;;;;;;25.58;100.00;101124.22;5026798;28;20124;-74
2023/08/19 07:32:37;;;;;;;12.93;8.18;;;;;;;25.68;100.00;101123.94;5028258;28;20864;-74
2023/08/19 07:35:03;;;;;;;13.40;6.97;;;;;;;25.77;100.00;101129.13;5027211;28;20041;-74
2023/08/19 07:37:30;;;;;;;15.48;7.95;;;;;;;25.85;100.00;101128.16;5031237;28;20034;-73
2023/08/19 07:39:57;;;;;;;14.32;8.50;;;;;;;25.96;100.00;101138.66;5028337;28;20068;-74
2023/08/19 07:42:23;;;;;;;13.63;8.18;;;;;;;26.03;100.00;101149.66;5021435;28;20046;-74
2023/08/19 07:44:48;;;;;;;10.98;7.72;;;;;;;26.24;100.00;101149.69;5029579;28;20080;-73
2023/08/19 07:47:14;;;;;;;14.40;8.02;;;;;;;26.25;100.00;101156.00;5028436;28;20087;-73
2023/08/19 07:49:40;;;;;;;13.88;7.72;;;;;;;26.34;100.00;101155.69;5032936;28;20107;-73
2023/08/19 07:52:05;;;;;;;12.63;7.57;;;;;;;26.30;100.00;101151.66;5030983;28;20033;-73
2023/08/19 07:54:31;;;;;;;12.98;7.28;;;;;;;26.52;100.00;101147.09;5030939;28;20148;-73
2023/08/19 07:56:58;;;;;;;14.43;7.95;;;;;;;26.42;100.00;101151.16;5038767;28;20055;-73
2023/08/19 07:59:25;;;;;;;11.90;7.20;;;;;;;26.58;100.00;101156.41;5026986;28;20866;-73
2023/08/19 08:01:50;;;;;;;12.93;7.28;;;;;;;26.67;100.00;101160.72;5018809;28;20041;-74
2023/08/19 08:04:16;;;;;;;11.75;7.50;;;;;;;26.88;100.00;101156.28;5024189;28;20953;-74
2023/08/19 08:06:42;;;;;;;15.65;7.60;;;;;;;26.97;100.00;101155.13;5033186;28;20108;-74
2023/08/19 08:09:07;;;;;;;13.30;7.13;;;;;;;27.12;100.00;101158.66;5019945;28;20077;-73
2023/08/19 08:11:33;;;;;;;17.05;7.80;;;;;;;27.33;100.00;101158.59;5027684;28;20034;-73
2023/08/19 08:13:58;;;;;;;11.95;7.75;;;;;;;27.38;100.00;101158.00;5031404;28;20037;-73
2023/08/19 08:16:24;;;;;;;10.85;6.93;;;;;;;27.32;100.00;101159.63;5019010;28;20041;-73
2023/08/19 08:18:49;;;;;;;15.75;7.65;;;;;;;27.36;100.00;101160.06;5030205;28;20116;-73
2023/08/19 08:21:15;;;;;;;16.45;7.78;;;;;;;27.65;100.00;101159.00;5024647;28;20033;-73
2023/08/19 08:23:41;;;;;;;11.60;7.03;;;;;;;27.55;100.00;101169.47;5047443;28;20531;-73
2023/08/19 08:26:08;;;;;;;13.43;7.32;;;;;;;27.83;100.00;101170.31;5027475;28;20038;-74
2023/08/19 08:28:33;;;;;;;16.33;7.88;;;;;;;28.14;99.56;101161.59;5008112;28;20889;-73
2023/08/19 08:30:59;;;;;;;11.02;7.22;;;;;;;28.39;98.65;101167.41;5026851;28;20037;-73
2023/08/19 08:33:25;;;;;;;12.40;7.78;;;;;;;28.51;97.18;101175.88;5031985;28;20951;-73
2023/08/19 08:35:51;;;;;;;16.30;7.55;;;;;;;28.75;97.78;101168.97;5055408;28;20213;-74
2023/08/19 08:38:17;;;;;;;12.13;7.20;;;;;;;28.74;95.35;101171.94;5038831;28;20041;-73
2023/08/19 08:40:43;;;;;;;9.95;7.47;;;;;;;28.88;95.33;101173.66;5040182;28;20164;-74
2023/08/19 08:43:09;;;;;;;13.07;7.53;;;;;;;29.04;93.25;101169.69;5034000;28;20041;-73
2023/08/19 08:45:36;;;;;;;10.85;7.57;;;;;;;29.56;93.42;101177.06;5025180;28;20087;-74
2023/08/19 08:48:02;;;;;;;11.65;7.10;;;;;;;29.64;89.67;101190.56;5030294;28;20065;-73
2023/08/19 08:50:28;;;;;;;13.05;7.70;;;;;;;29.45;87.32;101187.84;5032597;28;20030;-74
2023/08/19 08:52:56;;;;;;;12.13;7.25;;;;;;;29.58;88.09;101196.94;5029514;28;20033;-73
2023/08/19 08:55:21;;;;;;;12.25;8.23;;;;;;;29.35;88.44;101188.25;5030546;28;20033;-73
2023/08/19 08:57:47;;;;;;;15.00;8.73;;;;;;;29.05;90.22;101196.91;5029742;28;20034;-73
2023/08/19 09:00:14;;;;;;;12.30;9.00;;;;;;;29.41;87.84;101201.13;5029752;28;20038;-74
2023/08/19 09:02:43;;;;;;;12.07;7.78;;;;;;;29.35;89.29;101197.34;5035493;28;20122;-73
2023/08/19 09:05:09;;;;;;;12.60;8.70;;;;;;;29.59;91.11;101193.13;5035914;28;20075;-73
2023/08/19 09:07:41;;;;;;;14.07;8.35;;;;;;;29.59;90.25;101187.63;5033289;28;21108;-74
2023/08/19 09:10:14;;;;;;;14.32;8.52;;;;;;;29.36;91.17;101196.28;5026484;28;20045;-74
2023/08/19 09:12:44;;;;;;;14.20;8.55;;;;;;;28.95;92.91;101180.00;5029287;28;20041;-73
2023/08/19 09:15:11;;;;;;;12.73;8.18;;;;;;;29.02;94.82;101205.59;5030601;28;20111;-73
2023/08/19 09:17:38;;;;;;;17.35;9.77;;;;;;;28.89;95.73;101205.53;5036581;28;20037;-74
2023/08/19 09:20:04;;;;;;;12.30;9.65;;;;;;;28.53;99.47;101203.97;5039839;28;21293;-73
2023/08/19 09:22:30;;;;;;;14.93;9.60;;;;;;;28.24;100.00;101224.31;5030097;28;20033;-73
2023/08/19 09:24:57;;;;;;;16.30;10.18;;;;;;;28.13;100.00;101227.63;5014475;28;20041;-73
2023/08/19 09:27:27;;;;;;;17.17;10.07;;;;;;;27.97;100.00;101219.75;5046287;28;20030;-73
2023/08/19 09:29:53;;;;;;;20.45;11.30;;;;;;;27.82;100.00;101211.66;5032179;28;20036;-73
2023/08/19 09:32:29;;;;;;;14.50;10.07;;;;;;;27.95;100.00;101239.13;5028430;28;20045;-72
2023/08/19 09:35:02;;;;;;;18.15;10.30;;;;;;;27.90;100.00;101244.38;5027121;28;20041;-73
2023/08/19 09:37:27;;;;;;;13.07;10.43;;;;;;;27.74;100.00;101258.41;5020022;28;20034;-73
2023/08/19 09:39:53;;;;;;;14.05;10.45;;;;;;;27.68;100.00;101259.16;5024459;28;20037;-73
2023/08/19 09:42:21;;;;;;;20.20;11.07;;;;;;;27.55;100.00;101262.63;5025327;28;20038;-72
2023/08/19 09:44:46;;;;;;;17.55;11.90;;;;;;;27.44;100.00;101264.03;5046078;28;21040;-73
2023/08/19 09:47:12;;;;;;;20.30;12.10;;;;;;;27.65;100.00;101265.03;5045553;28;20100;-73
2023/08/19 09:49:37;;;;;;;13.75;11.73;;;;;;;27.40;100.00;101262.72;5030033;28;20136;-73
2023/08/19 09:52:03;;;;;;;18.30;11.82;;;;;;;27.33;100.00;101272.78;5032588;28;20155;-73
2023/08/19 09:54:29;;;;;;;19.05;12.20;;;;;;;27.35;100.00;101287.97;5032743;28;20789;-73
2023/08/19 09:56:57;;;;;;;18.63;12.40;;;;;;;27.14;100.00;101312.63;5031596;28;20033;-73
2023/08/19 09:59:26;;;;;;;20.40;14.23;;;;;;;27.07;100.00;101304.34;5032855;28;20033;-73
2023/08/19 10:01:53;;;;;;;22.00;14.55;;;;;;;26.90;100.00;101313.78;5028707;28;20056;-74
2023/08/19 10:04:19;;;;;;;19.40;14.23;;;;;;;26.82;100.00;101300.25;5029380;28;20045;-73
2023/08/19 10:06:54;;;;;;;19.05;14.98;;;;;;;26.67;100.00;101293.97;5019206;28;20077;-74
2023/08/19 10:09:24;;;;;;;21.27;15.82;;;;;;;26.66;100.00;101281.28;5031018;28;20057;-73
2023/08/19 10:11:52;;;;;;;26.05;16.35;;;;;;;26.89;100.00;101276.50;5019686;28;20044;-73
2023/08/19 10:14:23;;;;;;;22.67;15.95;;;;;;;27.25;100.00;101272.91;5018328;28;20037;-73
2023/08/19 10:16:51;;;;;;;18.90;15.13;;;;;;;27.57;100.00;101266.88;5026866;28;20132;-73
2023/08/19 10:19:20;;;;;;;19.75;15.43;;;;;;;27.79;100.00;101256.75;5021027;28;20050;-74
2023/08/19 10:21:48;;;;;;;19.58;15.05;;;;;;;28.18;100.00;101247.06;5034836;28;20092;-73
2023/08/19 10:24:17;;;;;;;20.45;15.70;;;;;;;28.48;100.00;101239.44;5023669;28;20175;-73
2023/08/19 10:26:52;;;;;;;19.98;14.90;;;;;;;29.01;100.00;101242.34;5044119;28;20137;-73
2023/08/19 10:29:17;;;;;;;21.13;13.88;;;;;;;29.76;100.00;101256.75;5028818;28;20033;-74
2023/08/19 10:31:43;;;;;;;21.58;13.63;;;;;;;30.06;100.00;101250.75;5026731;28;20035;-73
2023/08/19 10:34:13;;;;;;;18.58;13.77;;;;;;;30.27;100.00;101264.28;5031526;28;20117;-73
2023/08/19 10:36:39;;;;;;;17.83;13.27;;;;;;;30.52;99.94;101269.03;5026393;28;20127;-73
2023/08/19 10:39:17;;;;;;;16.02;14.32;;;;;;;30.31;96.37;101275.69;5028211;28;20064;-73
2023/08/19 10:41:43;;;;;;;20.65;14.57;;;;;;;30.37;97.16;101283.06;5031472;28;20585;-72
2023/08/19 10:44:12;;;;;;;21.00;15.63;;;;;;;30.42;96.75;101275.88;5024381;28;20215;-73
2023/08/19 10:46:40;;;;;;;20.58;14.32;;;;;;;30.52;96.13;101286.41;5026390;28;20037;-72
2023/08/19 10:49:27;;;;;;;20.27;15.32;;;;;;;30.46;95.15;101292.78;5030307;28;20138;-74
2023/08/19 10:52:06;;;;;;;22.15;15.57;;;;;;;30.35;92.37;101291.56;5026821;28;20044;-72
2023/08/19 10:54:38;;;;;;;23.80;15.63;;;;;;;30.49;95.21;101306.13;5034726;28;20037;-72
2023/08/19 10:57:26;;;;;;;20.15;15.27;;;;;;;30.82;91.46;101310.66;5033881;28;20071;-72
2023/08/19 10:59:58;;;;;;;21.25;16.63;;;;;;;30.74;91.79;101309.03;5030593;28;20073;-73
2023/08/19 11:02:28;;;;;;;19.30;15.55;;;;;;;30.56;92.56;101311.59;5050391;28;20063;-73
2023/08/19 11:04:54;;;;;;;22.02;17.23;;;;;;;30.22;93.00;101318.25;5036606;28;20033;-73